Time;durP1;ratioP1;P1;durP2;ratioP2;P2;SDS_P1;SDS_P2;PMS_P1;PMS_P2;Temp;Humidity;BMP_temperature;BMP_pressure;BME280_temperature;BME280_humidity;BME280_pressure;Samples;Min_cycle;Max_cycle;Signal;HPM_P1;HPM_P2
2021/09/23 00:01:46;;;;;;;8.30;5.88;;;13.90;99.90;;;;;;5113062;28;20122;-71
2021/09/23 00:06:40;;;;;;;10.00;6.60;;;13.80;99.90;;;;;;5113951;28;20024;-71
2021/09/23 00:09:07;;;;;;;7.68;5.75;;;13.80;99.90;;;;;;5113133;28;20035;-70
2021/09/23 00:11:33;;;;;;;8.35;6.38;;;13.80;99.90;;;;;;5112867;28;20032;-70
2021/09/23 00:13:59;;;;;;;9.23;6.20;;;13.70;99.90;;;;;;5112638;28;20027;-70
2021/09/23 00:16:24;;;;;;;9.88;6.60;;;13.50;99.90;;;;;;5114049;28;20435;-70
2021/09/23 00:18:51;;;;;;;7.57;6.28;;;13.40;99.90;;;;;;5114007;28;20024;-71
2021/09/23 00:21:17;;;;;;;15.43;7.72;;;13.30;99.90;;;;;;5114060;28;20389;-69
2021/09/23 00:23:45;;;;;;;11.38;6.40;;;13.20;99.90;;;;;;5114252;28;20123;-70
2021/09/23 00:26:12;;;;;;;11.43;6.20;;;13.20;99.90;;;;;;5095796;28;20414;-70
2021/09/23 00:28:38;;;;;;;7.82;5.53;;;13.20;99.90;;;;;;5111986;28;20080;-70
2021/09/23 00:31:04;;;;;;;8.48;6.05;;;13.40;99.90;;;;;;5112268;28;20118;-70
2021/09/23 00:33:30;;;;;;;6.93;6.22;;;13.30;99.90;;;;;;5111980;28;20085;-69
2021/09/23 00:35:56;;;;;;;10.65;5.85;;;13.30;99.90;;;;;;5112681;28;20461;-70
2021/09/23 00:38:21;;;;;;;7.80;5.93;;;13.40;99.90;;;;;;5113564;28;20444;-70
2021/09/23 00:40:47;;;;;;;7.78;5.65;;;13.50;99.90;;;;;;5112384;28;20162;-70
2021/09/23 00:43:12;;;;;;;9.63;5.70;;;13.40;99.90;;;;;;5112558;28;20030;-71
2021/09/23 00:45:38;;;;;;;8.25;5.55;;;13.40;99.90;;;;;;5111886;28;20071;-71
2021/09/23 00:48:04;;;;;;;11.80;5.75;;;13.30;99.90;;;;;;5112554;28;20376;-71
2021/09/23 00:50:30;;;;;;;9.27;5.93;;;13.20;99.90;;;;;;5112810;28;20028;-71
2021/09/23 00:52:56;;;;;;;6.25;5.57;;;13.20;99.90;;;;;;5113780;28;20372;-71
2021/09/23 00:55:22;;;;;;;9.90;6.53;;;13.20;99.90;;;;;;5112868;28;20035;-71
2021/09/23 00:57:48;;;;;;;10.10;5.55;;;13.20;99.90;;;;;;5111788;28;20038;-71
2021/09/23 01:00:16;;;;;;;11.15;6.32;;;13.10;99.90;;;;;;5113214;28;20055;-71
2021/09/23 01:02:42;;;;;;;11.65;5.85;;;13.00;99.90;;;;;;5110985;28;20023;-70
2021/09/23 01:05:09;;;;;;;10.23;5.80;;;12.90;99.90;;;;;;5111796;28;20034;-71
2021/09/23 01:07:35;;;;;;;7.65;5.72;;;13.00;99.90;;;;;;5111222;28;20024;-71
2021/09/23 01:10:03;;;;;;;12.13;5.63;;;13.00;99.90;;;;;;5111893;28;20028;-71
2021/09/23 01:12:29;;;;;;;9.00;5.97;;;12.90;99.90;;;;;;5111147;28;20483;-71
2021/09/23 01:14:54;;;;;;;9.23;6.20;;;12.90;99.90;;;;;;5111662;28;20020;-70
2021/09/23 01:17:21;;;;;;;12.02;6.38;;;12.80;99.90;;;;;;5113050;28;20350;-70
2021/09/23 01:19:47;;;;;;;10.77;6.15;;;12.90;99.90;;;;;;5111663;28;20030;-70
2021/09/23 01:22:13;;;;;;;9.48;5.95;;;13.00;99.90;;;;;;5111370;28;20464;-70
2021/09/23 01:24:40;;;;;;;12.90;5.80;;;13.00;99.90;;;;;;5111561;28;20043;-70
2021/09/23 01:27:07;;;;;;;11.48;6.07;;;13.10;99.90;;;;;;5111108;28;20024;-70
2021/09/23 01:29:34;;;;;;;9.15;6.30;;;13.00;99.90;;;;;;5111995;28;20410;-70
2021/09/23 01:32:02;;;;;;;9.00;5.75;;;13.00;99.90;;;;;;5112567;28;20457;-70
2021/09/23 01:34:28;;;;;;;9.88;6.53;;;12.80;99.90;;;;;;5110507;28;20092;-70
2021/09/23 01:36:55;;;;;;;10.88;5.88;;;12.70;99.90;;;;;;5112524;28;20026;-70
2021/09/23 01:39:23;;;;;;;14.23;6.40;;;12.60;99.90;;;;;;5112139;28;20068;-70
2021/09/23 01:41:49;;;;;;;9.07;5.22;;;12.50;99.90;;;;;;5110978;28;20480;-71
2021/09/23 01:44:15;;;;;;;7.63;6.10;;;12.50;99.90;;;;;;5113027;28;20032;-71
2021/09/23 01:46:41;;;;;;;12.15;6.20;;;12.60;99.90;;;;;;5111588;28;20099;-70
2021/09/23 01:49:07;;;;;;;8.90;5.95;;;12.40;99.90;;;;;;5110948;28;20029;-71
2021/09/23 01:51:33;;;;;;;8.85;5.97;;;12.40;99.90;;;;;;5110399;28;20032;-71
2021/09/23 01:53:59;;;;;;;10.18;6.57;;;12.20;99.90;;;;;;5112740;28;20389;-70
2021/09/23 01:56:24;;;;;;;9.65;6.40;;;12.30;99.90;;;;;;5110248;28;20026;-70
2021/09/23 01:58:50;;;;;;;6.72;5.60;;;12.40;99.90;;;;;;5110624;28;20026;-70
2021/09/23 02:01:16;;;;;;;7.28;5.95;;;12.40;99.90;;;;;;5110684;28;20035;-70
2021/09/23 02:03:41;;;;;;;7.97;6.45;;;12.20;99.90;;;;;;5111097;28;20027;-70
2021/09/23 02:06:07;;;;;;;10.27;6.90;;;12.20;99.90;;;;;;5110750;28;20433;-70
2021/09/23 02:08:33;;;;;;;11.93;6.00;;;12.20;99.90;;;;;;5109780;28;20089;-70
2021/09/23 02:10:59;;;;;;;7.47;6.03;;;12.20;99.90;;;;;;5111543;28;20067;-70
2021/09/23 02:13:25;;;;;;;7.63;5.97;;;12.30;99.90;;;;;;5111290;28;20406;-76
2021/09/23 02:15:50;;;;;;;10.40;5.88;;;12.30;99.90;;;;;;5098899;28;20073;-70
2021/09/23 02:18:16;;;;;;;7.05;5.95;;;12.20;99.90;;;;;;5076138;28;20031;-70
2021/09/23 02:20:42;;;;;;;9.18;6.32;;;12.20;99.90;;;;;;5070073;28;20530;-69
2021/09/23 02:23:09;;;;;;;8.57;6.00;;;12.20;99.90;;;;;;5072099;28;20033;-71
2021/09/23 02:25:35;;;;;;;6.85;5.63;;;12.20;99.90;;;;;;5069278;28;20084;-70
2021/09/23 02:28:00;;;;;;;6.57;5.78;;;12.20;99.90;;;;;;5071065;28;20036;-70
2021/09/23 02:30:28;;;;;;;7.80;5.70;;;12.30;99.90;;;;;;5068987;28;20047;-75
2021/09/23 02:32:54;;;;;;;9.68;5.72;;;12.30;99.90;;;;;;5069677;28;20094;-70
2021/09/23 02:35:19;;;;;;;11.63;6.18;;;12.30;99.90;;;;;;5070650;28;20063;-70
2021/09/23 02:37:45;;;;;;;6.95;6.00;;;12.40;99.90;;;;;;5069046;28;20499;-70
2021/09/23 02:40:12;;;;;;;9.30;6.30;;;12.30;99.90;;;;;;5069577;28;20032;-70
2021/09/23 02:42:38;;;;;;;10.45;6.22;;;12.30;99.90;;;;;;5068721;28;20028;-70
2021/09/23 02:45:04;;;;;;;6.60;5.60;;;12.20;99.90;;;;;;5071353;28;20464;-70
2021/09/23 02:47:30;;;;;;;10.32;6.28;;;12.30;99.90;;;;;;5069003;28;20028;-70
2021/09/23 02:49:56;;;;;;;10.18;6.43;;;12.30;99.90;;;;;;5070707;28;20371;-70
2021/09/23 02:52:21;;;;;;;8.40;5.78;;;12.20;99.90;;;;;;5069428;28;20028;-70
2021/09/23 02:54:47;;;;;;;10.45;6.38;;;12.20;99.90;;;;;;5069888;28;20070;-70
2021/09/23 02:57:13;;;;;;;10.25;6.55;;;12.30;99.90;;;;;;5070739;28;20112;-70
2021/09/23 02:59:39;;;;;;;11.27;5.68;;;12.30;99.90;;;;;;5068802;28;20159;-70
2021/09/23 03:02:05;;;;;;;9.32;5.90;;;12.20;99.90;;;;;;5069291;28;20098;-70
2021/09/23 03:04:31;;;;;;;8.00;6.35;;;12.20;99.90;;;;;;5068614;28;20204;-70
2021/09/23 03:06:57;;;;;;;8.40;6.50;;;12.10;99.90;;;;;;5070537;28;20394;-71
2021/09/23 03:09:23;;;;;;;9.02;5.95;;;12.10;99.90;;;;;;5069282;28;20021;-71
2021/09/23 03:11:48;;;;;;;8.38;5.60;;;12.10;99.90;;;;;;5068823;28;20351;-71
2021/09/23 03:14:14;;;;;;;10.32;5.88;;;12.10;99.90;;;;;;5071010;28;20024;-71
2021/09/23 03:16:40;;;;;;;7.13;5.97;;;12.20;99.90;;;;;;5069942;28;20028;-70
2021/09/23 03:19:06;;;;;;;7.93;6.60;;;12.20;99.90;;;;;;5070815;28;20072;-71
2021/09/23 03:21:31;;;;;;;12.13;6.35;;;12.20;99.90;;;;;;5068729;28;20029;-71
2021/09/23 03:23:57;;;;;;;8.68;6.82;;;12.10;99.90;;;;;;5069217;28;20035;-71
2021/09/23 03:26:23;;;;;;;8.88;6.00;;;11.90;99.90;;;;;;5069121;28;20493;-70
2021/09/23 03:28:49;;;;;;;8.10;5.72;;;12.00;99.90;;;;;;5069935;28;20301;-71
2021/09/23 03:31:14;;;;;;;9.07;6.60;;;12.10;99.90;;;;;;5070464;28;20028;-70
2021/09/23 03:33:40;;;;;;;9.30;6.50;;;12.10;99.90;;;;;;5068332;28;20377;-71
2021/09/23 03:36:06;;;;;;;9.30;6.18;;;12.00;99.90;;;;;;5070489;28;20028;-70
2021/09/23 03:38:32;;;;;;;12.02;6.32;;;11.80;99.90;;;;;;5069742;28;20500;-70
2021/09/23 03:40:58;;;;;;;10.75;6.43;;;11.90;99.90;;;;;;5069869;28;20043;-69
2021/09/23 03:43:23;;;;;;;9.52;6.25;;;11.90;99.90;;;;;;5070135;28;20470;-69
2021/09/23 03:45:50;;;;;;;7.57;6.15;;;11.90;99.90;;;;;;5069806;28;20517;-69
2021/09/23 03:48:21;;;;;;;9.68;6.43;;;11.80;99.90;;;;;;5072380;28;20024;-71
2021/09/23 03:50:48;;;;;;;10.55;6.45;;;11.70;99.90;;;;;;5072043;28;20056;-71
2021/09/23 03:53:14;;;;;;;11.43;6.55;;;11.60;99.90;;;;;;5072693;28;20029;-70
2021/09/23 03:55:40;;;;;;;11.05;6.72;;;11.60;99.90;;;;;;5071848;28;20453;-71
2021/09/23 03:58:05;;;;;;;8.95;6.45;;;11.70;99.90;;;;;;5074028;28;20029;-69
2021/09/23 04:00:31;;;;;;;13.95;6.72;;;11.70;99.90;;;;;;5072133;28;20032;-75
2021/09/23 04:02:57;;;;;;;8.30;6.63;;;11.70;99.90;;;;;;5073644;28;20038;-71
2021/09/23 04:05:22;;;;;;;10.93;6.03;;;11.70;99.90;;;;;;5073487;28;20103;-71
2021/09/23 04:07:48;;;;;;;8.07;6.43;;;11.70;99.90;;;;;;5071421;28;20462;-71
2021/09/23 04:10:14;;;;;;;7.13;5.88;;;11.60;99.90;;;;;;5073468;28;20029;-71
2021/09/23 04:12:40;;;;;;;10.95;6.82;;;11.60;99.90;;;;;;5071705;28;20028;-71
2021/09/23 04:15:07;;;;;;;8.13;6.30;;;11.50;99.90;;;;;;5072427;28;20033;-71
2021/09/23 04:17:33;;;;;;;8.40;6.07;;;11.50;99.90;;;;;;5071590;28;20086;-71
2021/09/23 04:19:59;;;;;;;11.32;6.35;;;11.70;99.90;;;;;;5071991;28;20429;-71
2021/09/23 04:22:25;;;;;;;14.48;6.30;;;11.60;99.90;;;;;;5072056;28;20454;-70
2021/09/23 04:24:51;;;;;;;15.88;6.38;;;11.60;99.90;;;;;;5072306;28;20402;-70
2021/09/23 04:27:17;;;;;;;11.07;6.32;;;11.50;99.90;;;;;;5072077;28;20046;-70
2021/09/23 04:29:46;;;;;;;9.30;6.30;;;11.50;99.90;;;;;;5071352;28;20482;-70
2021/09/23 04:32:12;;;;;;;9.18;6.35;;;11.50;99.90;;;;;;5071837;28;20112;-70
2021/09/23 04:34:38;;;;;;;10.50;6.47;;;11.50;99.90;;;;;;5072556;28;20028;-70
2021/09/23 04:37:04;;;;;;;8.35;6.68;;;11.50;99.90;;;;;;5071635;28;20032;-71
2021/09/23 04:39:30;;;;;;;12.55;6.82;;;11.50;99.90;;;;;;5071666;28;20029;-71
2021/09/23 04:41:56;;;;;;;9.98;6.20;;;11.40;99.90;;;;;;5072495;28;20028;-71
2021/09/23 04:44:22;;;;;;;10.57;6.55;;;11.40;99.90;;;;;;5071696;28;20031;-71
2021/09/23 04:46:47;;;;;;;11.40;6.63;;;11.40;99.90;;;;;;5071359;28;20028;-71
2021/09/23 04:49:13;;;;;;;11.68;7.35;;;11.40;99.90;;;;;;5071306;28;20024;-70
2021/09/23 04:51:40;;;;;;;10.18;6.20;;;11.40;99.90;;;;;;5070677;28;20040;-70
2021/09/23 04:54:07;;;;;;;13.18;7.10;;;11.30;99.90;;;;;;5070842;28;20078;-70
2021/09/23 04:56:33;;;;;;;10.98;6.50;;;11.40;99.90;;;;;;5071416;28;20531;-71
2021/09/23 04:58:59;;;;;;;11.15;6.75;;;11.30;99.90;;;;;;5071618;28;20028;-70
2021/09/23 05:01:24;;;;;;;13.32;6.32;;;11.30;99.90;;;;;;5070831;28;20077;-70
2021/09/23 05:03:50;;;;;;;9.90;6.43;;;11.30;99.90;;;;;;5071965;28;20114;-70
2021/09/23 05:06:15;;;;;;;11.60;6.55;;;11.30;99.90;;;;;;5070866;28;20028;-71
2021/09/23 05:08:41;;;;;;;11.18;6.78;;;11.30;99.90;;;;;;5070553;28;20025;-70
2021/09/23 05:11:07;;;;;;;15.07;6.95;;;11.30;99.90;;;;;;5070688;28;20063;-70
2021/09/23 05:13:32;;;;;;;12.15;7.15;;;11.30;99.90;;;;;;5070671;28;20154;-70
2021/09/23 05:15:58;;;;;;;12.15;6.80;;;11.20;99.90;;;;;;5071290;28;20393;-70
2021/09/23 05:18:24;;;;;;;20.50;7.47;;;11.20;99.90;;;;;;5071036;28;20028;-71
2021/09/23 05:20:50;;;;;;;12.55;7.30;;;11.10;99.90;;;;;;5071512;28;20144;-71
2021/09/23 05:23:16;;;;;;;12.77;6.63;;;11.10;99.90;;;;;;5070737;28;20442;-70
2021/09/23 05:25:42;;;;;;;15.48;8.15;;;11.20;99.90;;;;;;5071604;28;20158;-71
2021/09/23 05:28:08;;;;;;;10.93;7.47;;;11.20;99.90;;;;;;5072265;28;20024;-70
2021/09/23 05:30:33;;;;;;;14.98;7.35;;;11.30;99.90;;;;;;5070318;28;20130;-71
2021/09/23 05:32:59;;;;;;;13.40;8.15;;;11.20;99.90;;;;;;5071330;28;20021;-71
2021/09/23 05:35:25;;;;;;;12.68;6.85;;;11.30;99.90;;;;;;5070291;28;20428;-71
2021/09/23 05:37:51;;;;;;;18.23;8.02;;;11.30;99.90;;;;;;5069514;28;20067;-71
2021/09/23 05:40:17;;;;;;;39.05;11.38;;;11.40;99.90;;;;;;5070134;28;20422;-71
2021/09/23 05:42:42;;;;;;;18.50;8.00;;;11.40;99.90;;;;;;5069522;28;20461;-70
2021/09/23 05:45:11;;;;;;;10.70;6.50;;;11.50;99.90;;;;;;5069985;28;20059;-70
2021/09/23 05:47:38;;;;;;;18.50;7.95;;;11.70;99.90;;;;;;5069565;28;20025;-69
2021/09/23 05:50:04;;;;;;;19.02;7.22;;;11.50;99.90;;;;;;5070365;28;20384;-69
2021/09/23 05:52:30;;;;;;;11.43;6.78;;;11.50;99.90;;;;;;5069196;28;20064;-70
2021/09/23 05:54:56;;;;;;;17.52;7.00;;;11.50;99.90;;;;;;5069216;28;20024;-70
2021/09/23 05:57:32;;;;;;;14.52;7.22;;;11.50;99.90;;;;;;5069541;28;20040;-70
2021/09/23 05:59:58;;;;;;;16.73;6.60;;;11.60;99.90;;;;;;5069199;28;20299;-70
2021/09/23 06:02:24;;;;;;;14.13;6.50;;;11.70;99.90;;;;;;5069498;28;20036;-70
2021/09/23 06:04:50;;;;;;;11.48;6.90;;;11.80;99.90;;;;;;5068706;28;20031;-69
2021/09/23 06:07:16;;;;;;;17.30;7.38;;;11.80;99.90;;;;;;5070968;28;20122;-70
2021/09/23 06:09:42;;;;;;;24.05;7.95;;;11.70;99.90;;;;;;5068887;28;20028;-70
2021/09/23 06:12:08;;;;;;;15.23;6.80;;;11.50;99.90;;;;;;5070892;28;20028;-70
2021/09/23 06:14:34;;;;;;;20.63;8.65;;;11.50;99.90;;;;;;5069776;28;20029;-70
2021/09/23 06:17:00;;;;;;;21.17;8.15;;;11.50;99.90;;;;;;5068772;28;20469;-71
2021/09/23 06:19:25;;;;;;;22.85;7.82;;;11.50;99.90;;;;;;5070710;28;20124;-70
2021/09/23 06:21:51;;;;;;;25.98;7.70;;;11.60;99.90;;;;;;5068475;28;20377;-70
2021/09/23 06:24:17;;;;;;;16.17;8.05;;;11.70;99.90;;;;;;5068816;28;20067;-70
2021/09/23 06:26:42;;;;;;;25.48;8.38;;;11.70;99.90;;;;;;5069496;28;20145;-70
2021/09/23 06:29:08;;;;;;;17.15;7.28;;;11.70;99.90;;;;;;5068781;28;20021;-70
2021/09/23 06:31:35;;;;;;;15.52;6.93;;;11.80;99.90;;;;;;5070373;28;20033;-70
2021/09/23 06:34:01;;;;;;;13.55;7.20;;;12.10;99.90;;;;;;5068003;28;20033;-69
2021/09/23 06:36:27;;;;;;;13.48;6.78;;;12.10;99.90;;;;;;5070271;28;20173;-69
2021/09/23 06:38:52;;;;;;;14.20;6.65;;;12.50;99.90;;;;;;5067960;28;20153;-71
2021/09/23 06:41:18;;;;;;;12.93;7.28;;;12.70;99.90;;;;;;5068485;28;20443;-70
2021/09/23 06:43:45;;;;;;;12.35;6.32;;;12.90;99.90;;;;;;5067619;28;20439;-69
2021/09/23 06:46:12;;;;;;;12.00;6.70;;;13.00;99.90;;;;;;5069610;28;20109;-70
2021/09/23 06:48:38;;;;;;;12.40;7.05;;;13.20;99.90;;;;;;5068116;28;20478;-69
2021/09/23 06:51:04;;;;;;;18.33;6.35;;;13.30;99.90;;;;;;5068015;28;20116;-70
2021/09/23 06:53:30;;;;;;;13.55;6.70;;;13.40;99.90;;;;;;5070065;28;20040;-71
2021/09/23 06:55:56;;;;;;;13.43;6.88;;;13.40;99.90;;;;;;5069262;28;20367;-70
2021/09/23 06:58:21;;;;;;;26.30;7.45;;;13.50;99.90;;;;;;5068707;28;20028;-70
2021/09/23 07:00:47;;;;;;;11.45;6.45;;;14.20;99.90;;;;;;5067474;28;20094;-70
2021/09/23 07:03:12;;;;;;;11.80;6.68;;;14.20;99.90;;;;;;5068482;28;20025;-70
2021/09/23 07:05:42;;;;;;;9.80;6.10;;;14.30;99.90;;;;;;5068254;28;20037;-71
2021/09/23 07:08:08;;;;;;;14.93;6.45;;;14.40;99.90;;;;;;5068130;28;20035;-71
2021/09/23 07:10:34;;;;;;;12.60;7.03;;;14.60;99.90;;;;;;5068399;28;20028;-72
2021/09/23 07:13:00;;;;;;;14.40;7.05;;;14.80;99.90;;;;;;5068635;28;20094;-69
2021/09/23 07:15:25;;;;;;;15.02;6.97;;;14.70;99.90;;;;;;5069455;28;20078;-70
2021/09/23 07:17:51;;;;;;;11.85;6.20;;;14.70;99.90;;;;;;5069202;28;20040;-70
2021/09/23 07:20:16;;;;;;;10.60;6.38;;;15.10;99.90;;;;;;5069379;28;20025;-70
2021/09/23 07:22:42;;;;;;;9.68;6.93;;;15.40;99.90;;;;;;5072486;28;20474;-71
2021/09/23 07:25:09;;;;;;;20.55;6.57;;;15.60;99.90;;;;;;5076232;28;20055;-71
2021/09/23 07:27:35;;;;;;;13.90;6.88;;;15.70;99.90;;;;;;5090116;28;20039;-70
2021/09/23 07:30:00;;;;;;;13.82;6.35;;;15.80;99.90;;;;;;5092010;28;20028;-69
2021/09/23 07:32:26;;;;;;;7.45;4.93;;;16.00;99.90;;;;;;5092248;28;20422;-64
2021/09/23 07:34:52;;;;;;;7.00;4.72;;;16.50;99.90;;;;;;5092189;28;20035;-65
2021/09/23 07:37:17;;;;;;;9.27;6.05;;;17.50;99.90;;;;;;5092624;28;20381;-63
2021/09/23 07:39:46;;;;;;;8.23;5.90;;;17.70;99.90;;;;;;5087058;28;20058;-64
2021/09/23 07:42:12;;;;;;;12.60;7.50;;;17.50;99.90;;;;;;5091880;28;20059;-66
2021/09/23 07:44:40;;;;;;;12.68;5.63;;;17.30;99.90;;;;;;5092516;28;20410;-65
2021/09/23 07:47:06;;;;;;;8.27;5.15;;;16.80;99.90;;;;;;5090116;28;20030;-66
2021/09/23 07:49:31;;;;;;;8.75;4.50;;;17.50;99.90;;;;;;5088588;28;20024;-66
2021/09/23 07:51:57;;;;;;;9.55;6.80;;;17.80;99.90;;;;;;5092640;28;20132;-65
2021/09/23 07:54:23;;;;;;;10.10;5.25;;;17.90;99.90;;;;;;5091716;28;20164;-65
2021/09/23 07:56:48;;;;;;;6.97;4.70;;;18.20;99.90;;;;;;5092384;28;20403;-66
2021/09/23 07:59:14;;;;;;;6.43;4.43;;;18.60;99.80;;;;;;5093297;28;20048;-66
2021/09/23 08:01:40;;;;;;;9.55;5.10;;;18.20;99.90;;;;;;5092972;28;20036;-64
2021/09/23 08:04:05;;;;;;;11.57;4.50;;;18.50;99.90;;;;;;5091456;28;20071;-64
2021/09/23 08:06:31;;;;;;;8.15;4.35;;;18.60;99.90;;;;;;5093088;28;20450;-64
2021/09/23 08:08:57;;;;;;;7.38;4.45;;;18.30;99.90;;;;;;5091177;28;20041;-65
2021/09/23 08:11:23;;;;;;;8.85;4.50;;;18.30;99.90;;;;;;5093006;28;20103;-66
2021/09/23 08:13:50;;;;;;;10.68;5.03;;;19.00;99.90;;;;;;5089733;28;20028;-65
2021/09/23 08:16:15;;;;;;;8.48;5.55;;;19.00;99.50;;;;;;5092597;28;20024;-72
2021/09/23 08:18:41;;;;;;;7.38;4.93;;;18.90;99.30;;;;;;5090909;28;20050;-72
2021/09/23 08:21:07;;;;;;;7.65;5.45;;;18.80;99.60;;;;;;5090017;28;20028;-71
2021/09/23 08:23:33;;;;;;;8.50;4.93;;;19.00;99.90;;;;;;5089310;28;20028;-72
2021/09/23 08:25:58;;;;;;;7.10;5.20;;;18.70;99.90;;;;;;5074636;28;20078;-65
2021/09/23 08:28:26;;;;;;;8.85;5.25;;;19.20;99.60;;;;;;5075512;28;20095;-73
2021/09/23 08:30:52;;;;;;;12.65;5.00;;;19.50;99.00;;;;;;5069506;28;20085;-73
2021/09/23 08:33:18;;;;;;;14.60;6.28;;;19.70;98.40;;;;;;5071100;28;20028;-69
2021/09/23 08:35:45;;;;;;;11.23;4.97;;;19.80;98.30;;;;;;5071198;28;20029;-72
2021/09/23 08:38:11;;;;;;;10.05;4.97;;;19.50;98.00;;;;;;5087967;28;20035;-71
2021/09/23 08:40:37;;;;;;;7.85;4.93;;;19.50;98.00;;;;;;5077625;28;20115;-71
2021/09/23 08:43:03;;;;;;;8.23;4.63;;;19.30;98.40;;;;;;5071348;28;20502;-71
2021/09/23 08:45:29;;;;;;;8.15;4.68;;;19.60;98.10;;;;;;5070470;28;20153;-71
2021/09/23 08:47:54;;;;;;;14.32;5.05;;;19.80;97.90;;;;;;5069966;28;20031;-71
2021/09/23 08:50:20;;;;;;;11.75;4.95;;;19.60;97.70;;;;;;5073932;28;20031;-71
2021/09/23 08:52:47;;;;;;;12.68;4.88;;;19.50;98.00;;;;;;5071685;28;20107;-70
2021/09/23 08:55:27;;;;;;;7.97;4.80;;;19.70;98.20;;;;;;5071696;28;20037;-71
2021/09/23 08:57:58;;;;;;;7.43;5.00;;;19.90;97.60;;;;;;5071494;28;20075;-70
2021/09/23 09:00:24;;;;;;;7.80;4.75;;;19.70;97.60;;;;;;5070122;28;20032;-70
2021/09/23 09:03:07;;;;;;;7.50;4.35;;;20.30;97.00;;;;;;5079416;28;20044;-73
2021/09/23 09:05:34;;;;;;;9.40;4.10;;;20.20;97.30;;;;;;5071712;28;20028;-69
2021/09/23 09:08:05;;;;;;;12.00;5.18;;;20.80;96.30;;;;;;5087013;28;20410;-51
2021/09/23 09:10:32;;;;;;;7.97;4.47;;;21.00;99.90;;;;;;5087295;28;20496;-50
2021/09/23 09:13:08;;;;;;;10.93;4.30;;;21.20;98.90;;;;;;5071005;28;20029;-50
2021/09/23 09:15:38;;;;;;;11.20;5.05;;;21.50;97.40;;;;;;5071611;28;20058;-50
2021/09/23 09:18:15;;;;;;;8.85;4.10;;;21.70;96.30;;;;;;5071007;28;20025;-50
2021/09/23 09:21:02;;;;;;;9.07;4.85;;;21.80;95.70;;;;;;5071450;28;20075;-49
2021/09/23 09:23:38;;;;;;;8.90;3.35;;;21.50;95.30;;;;;;5071231;28;20431;-50
2021/09/23 09:26:04;;;;;;;5.13;3.78;;;21.90;96.70;;;;;;5081371;28;20147;-50
2021/09/23 09:28:30;;;;;;;10.88;5.32;;;22.30;96.10;;;;;;5071521;28;20489;-50
2021/09/23 09:31:00;;;;;;;7.13;3.40;;;22.70;94.00;;;;;;5070868;28;20028;-51
2021/09/23 09:33:44;;;;;;;9.65;3.47;;;23.50;94.30;;;;;;5070708;28;20474;-51
2021/09/23 09:36:49;;;;;;;4.75;3.10;;;23.50;93.50;;;;;;5069692;28;20487;-50
2021/09/23 09:39:17;;;;;;;5.07;3.25;;;23.00;94.20;;;;;;5039323;28;20037;-50
2021/09/23 09:41:53;;;;;;;6.75;3.47;;;23.00;93.50;;;;;;5070501;28;20503;-50
2021/09/23 09:44:19;;;;;;;5.05;3.65;;;23.10;93.30;;;;;;5070740;28;20033;-51
2021/09/23 09:46:49;;;;;;;13.80;4.93;;;22.90;93.50;;;;;;5071021;28;20381;-50
2021/09/23 09:49:16;;;;;;;13.18;4.10;;;23.10;92.70;;;;;;5068786;28;20028;-49
2021/09/23 09:51:51;;;;;;;10.25;4.13;;;23.20;92.10;;;;;;5069361;28;20083;-50
2021/09/23 09:54:18;;;;;;;8.65;2.70;;;23.40;92.40;;;;;;5071075;28;20028;-50
2021/09/23 09:56:46;;;;;;;5.85;3.30;;;23.70;92.10;;;;;;5069127;28;20063;-50
2021/09/23 09:59:19;;;;;;;4.30;2.75;;;23.80;91.70;;;;;;5069422;28;20052;-50
2021/09/23 10:01:48;;;;;;;8.70;4.00;;;24.00;91.50;;;;;;5069824;28;20032;-50
2021/09/23 10:04:15;;;;;;;9.82;3.78;;;24.00;91.20;;;;;;5069826;28;20051;-50
2021/09/23 10:06:42;;;;;;;7.78;3.55;;;24.70;91.10;;;;;;5070548;28;20024;-50
2021/09/23 10:09:09;;;;;;;6.43;3.58;;;24.60;90.20;;;;;;5070053;28;20029;-50
2021/09/23 10:11:38;;;;;;;7.25;3.65;;;24.40;90.00;;;;;;5069005;28;20051;-51
2021/09/23 10:14:04;;;;;;;7.65;3.05;;;24.40;90.10;;;;;;5070200;28;20031;-51
2021/09/23 10:16:31;;;;;;;10.63;2.53;;;24.30;90.50;;;;;;5070601;28;20032;-50
2021/09/23 10:18:57;;;;;;;9.55;3.80;;;24.10;90.60;;;;;;5069940;28;20484;-51
2021/09/23 10:21:25;;;;;;;5.68;3.25;;;23.80;90.20;;;;;;5070271;28;20115;-51
2021/09/23 10:23:52;;;;;;;6.82;2.83;;;23.70;90.00;;;;;;5070454;28;20040;-51
2021/09/23 10:26:23;;;;;;;8.77;3.85;;;23.70;90.30;;;;;;5073125;28;20107;-51
2021/09/23 10:28:50;;;;;;;4.28;2.90;;;23.80;89.50;;;;;;5089315;28;20127;-50
2021/09/23 10:31:18;;;;;;;6.45;3.67;;;23.50;90.20;;;;;;5090045;28;20027;-50
2021/09/23 10:33:46;;;;;;;6.32;2.58;;;23.40;91.20;;;;;;5089252;28;20031;-49
2021/09/23 10:36:12;;;;;;;6.53;2.63;;;23.50;90.90;;;;;;5088672;28;20047;-49
2021/09/23 10:38:40;;;;;;;4.82;2.97;;;23.50;90.70;;;;;;5088836;28;20060;-49
2021/09/23 10:41:06;;;;;;;4.28;2.50;;;23.70;90.40;;;;;;5089597;28;20063;-50
2021/09/23 10:43:32;;;;;;;3.58;2.55;;;23.70;90.10;;;;;;5090114;28;20135;-49
2021/09/23 10:46:00;;;;;;;3.97;2.28;;;24.10;90.00;;;;;;5089674;28;20478;-50
2021/09/23 10:48:28;;;;;;;5.50;2.80;;;24.00;88.00;;;;;;5088152;28;20355;-50
2021/09/23 10:50:55;;;;;;;6.78;1.92;;;24.00;89.50;;;;;;5088452;28;20039;-49
2021/09/23 10:53:20;;;;;;;5.57;2.38;;;24.20;88.50;;;;;;5088210;28;20028;-50
2021/09/23 10:55:46;;;;;;;5.32;2.35;;;24.10;87.20;;;;;;5089344;28;20583;-50
2021/09/23 10:58:19;;;;;;;4.10;2.10;;;24.20;87.50;;;;;;5090148;28;20020;-50
2021/09/23 11:00:45;;;;;;;5.57;1.90;;;24.40;87.20;;;;;;5089029;28;20043;-51
2021/09/23 11:03:12;;;;;;;7.00;2.47;;;24.50;88.30;;;;;;5089781;28;20024;-50
2021/09/23 11:05:41;;;;;;;3.95;2.30;;;24.30;87.00;;;;;;5090211;28;20024;-50
2021/09/23 11:08:10;;;;;;;4.60;1.95;;;24.90;86.40;;;;;;5089334;28;20024;-50
2021/09/23 11:10:44;;;;;;;5.60;2.50;;;24.80;85.50;;;;;;5089752;28;20024;-50
2021/09/23 11:13:13;;;;;;;6.50;2.40;;;24.70;85.40;;;;;;5088670;28;20140;-50
2021/09/23 11:15:43;;;;;;;4.20;2.08;;;25.00;85.30;;;;;;5085457;28;20021;-50
2021/09/23 11:18:11;;;;;;;6.60;2.47;;;25.30;84.50;;;;;;5089307;28;20028;-51
2021/09/23 11:20:39;;;;;;;4.45;2.53;;;25.30;84.30;;;;;;5090265;28;20075;-50
2021/09/23 11:23:07;;;;;;;10.02;3.13;;;25.20;83.40;;;;;;5087997;28;20066;-52
2021/09/23 11:25:40;;;;;;;6.78;3.00;;;25.10;84.00;;;;;;5089675;28;20040;-49
2021/09/23 11:28:07;;;;;;;3.35;2.20;;;25.00;84.10;;;;;;5089208;28;20032;-50
2021/09/23 11:30:35;;;;;;;4.38;2.25;;;25.20;84.60;;;;;;5089610;28;20446;-49
2021/09/23 11:33:05;;;;;;;9.77;2.58;;;25.50;83.70;;;;;;5089161;28;20057;-51
2021/09/23 11:35:34;;;;;;;4.63;2.00;;;25.90;83.80;;;;;;5089492;28;20496;-50
2021/09/23 11:38:00;;;;;;;4.40;2.20;;;26.60;82.40;;;;;;5089029;28;20107;-50
2021/09/23 11:40:33;;;;;;;4.22;2.75;;;26.60;82.10;;;;;;5089638;28;20070;-50
2021/09/23 11:43:02;;;;;;;3.55;2.28;;;26.60;82.50;;;;;;5089109;28;20035;-62
2021/09/23 11:45:31;;;;;;;6.82;2.50;;;26.60;81.60;;;;;;5089440;28;20020;-50
2021/09/23 11:48:10;;;;;;;7.88;2.58;;;26.40;81.00;;;;;;5089891;28;20150;-50
2021/09/23 11:50:50;;;;;;;5.82;2.88;;;26.40;81.40;;;;;;5089980;28;20032;-70
2021/09/23 11:53:21;;;;;;;6.90;2.95;;;26.10;81.60;;;;;;5087175;28;20036;-71
2021/09/23 11:56:04;;;;;;;3.42;2.03;;;24.80;83.50;;;;;;5089484;28;20202;-71
2021/09/23 11:58:32;;;;;;;7.18;2.33;;;25.00;83.20;;;;;;5089591;28;20050;-70
2021/09/23 12:00:58;;;;;;;3.33;2.30;;;25.70;82.60;;;;;;5089375;28;20074;-70
2021/09/23 12:03:25;;;;;;;4.68;2.33;;;26.50;82.00;;;;;;5088654;28;20035;-71
2021/09/23 12:05:52;;;;;;;11.90;2.67;;;26.10;81.60;;;;;;5087525;28;20031;-71
2021/09/23 12:08:24;;;;;;;4.15;2.92;;;26.40;81.70;;;;;;5089586;28;20034;-71
2021/09/23 12:11:01;;;;;;;8.45;2.70;;;26.20;81.40;;;;;;5092587;28;20036;-71
2021/09/23 12:13:34;;;;;;;5.15;2.53;;;26.40;80.90;;;;;;5091126;28;20372;-71
2021/09/23 12:16:03;;;;;;;5.88;2.25;;;26.40;81.00;;;;;;5078948;28;20347;-71
2021/09/23 12:18:30;;;;;;;7.57;2.20;;;26.00;81.40;;;;;;5072710;28;20036;-72
2021/09/23 12:20:58;;;;;;;5.72;2.17;;;26.20;82.00;;;;;;5070874;28;20119;-72
2021/09/23 12:23:34;;;;;;;3.85;2.15;;;26.00;81.20;;;;;;5071683;28;20055;-71
2021/09/23 12:26:09;;;;;;;4.35;2.20;;;26.20;80.40;;;;;;5070803;28;20521;-72
2021/09/23 12:28:38;;;;;;;6.07;2.20;;;26.40;79.60;;;;;;5071322;28;20454;-72
2021/09/23 12:31:08;;;;;;;8.48;2.40;;;26.30;80.50;;;;;;5072371;28;20173;-72
2021/09/23 12:33:34;;;;;;;13.18;3.15;;;26.20;80.60;;;;;;5071107;28;20055;-75
2021/09/23 12:36:07;;;;;;;5.10;2.47;;;25.90;80.80;;;;;;5072731;28;20037;-72
2021/09/23 12:38:33;;;;;;;2.70;1.77;;;25.90;81.20;;;;;;5071920;28;20446;-72
2021/09/23 12:40:59;;;;;;;9.15;2.17;;;25.80;80.20;;;;;;5070231;28;20036;-71
2021/09/23 12:43:33;;;;;;;4.82;2.50;;;25.90;80.20;;;;;;5071729;28;20031;-72
2021/09/23 12:46:15;;;;;;;9.63;1.92;;;26.20;81.00;;;;;;5070738;28;20020;-71